Time;durP1;ratioP1;P1;durP2;ratioP2;P2;SDS_P1;SDS_P2;PMS_P1;PMS_P2;Temp;Humidity;BMP_temperature;BMP_pressure;BME280_temperature;BME280_humidity;BME280_pressure;Samples;Min_cycle;Max_cycle;Signal;HPM_P1;HPM_P2
2020/12/21 00:02:01;;;;;;;;;;;;;;;;;;6305442;22;19960;-79
2020/12/21 00:04:27;;;;;;;;;;;;;;;;;;6304230;22;19903;-79
2020/12/21 00:06:53;;;;;;;;;;;;;;;;;;6305412;22;19899;-79
2020/12/21 00:09:19;;;;;;;;;;;;;;;;;;6305922;22;19903;-79
2020/12/21 00:11:45;;;;;;;;;;;;;;;;;;6305579;22;20253;-78
2020/12/21 00:14:11;;;;;;;;;;;;;;;;;;6305230;22;19921;-78
2020/12/21 00:16:37;;;;;;;;;;;;;;;;;;6305480;22;20356;-79
2020/12/21 00:19:02;;;;;;;;;;;;;;;;;;6305362;22;19907;-79
2020/12/21 00:21:28;;;;;;;;;;;;;;;;;;6305629;22;20355;-78
2020/12/21 00:23:54;;;;;;;;;;;;;;;;;;6305381;22;19944;-79
2020/12/21 00:26:20;;;;;;;;;;;;;;;;;;6305358;22;19906;-78
2020/12/21 00:28:46;;;;;;;;;;;;;;;;;;6305476;22;19902;-78
2020/12/21 00:31:12;;;;;;;;;;;;;;;;;;6305384;22;19898;-79
2020/12/21 00:33:38;;;;;;;;;;;;;;;;;;6305365;22;20372;-79
2020/12/21 00:36:04;;;;;;;;;;;;;;;;;;6305162;22;19899;-79
2020/12/21 00:38:29;;;;;;;;;;;;;;;;;;6305255;22;19942;-79
2020/12/21 00:40:55;;;;;;;;;;;;;;;;;;6305235;22;19911;-79
2020/12/21 00:43:21;;;;;;;;;;;;;;;;;;6305215;22;19903;-79
2020/12/21 00:45:47;;;;;;;;;;;;;;;;;;6305284;22;19898;-78
2020/12/21 00:48:13;;;;;;;;;;;;;;;;;;6305360;22;19903;-79
2020/12/21 00:50:39;;;;;;;;;;;;;;;;;;6305163;22;19961;-79
2020/12/21 00:53:05;;;;;;;;;;;;;;;;;;6305275;22;19936;-79
2020/12/21 00:55:31;;;;;;;;;;;;;;;;;;6305336;22;19929;-79
2020/12/21 00:57:57;;;;;;;;;;;;;;;;;;6305237;22;20297;-79
2020/12/21 01:00:23;;;;;;;;;;;;;;;;;;6305327;22;19985;-79
2020/12/21 01:02:48;;;;;;;;;;;;;;;;;;6305165;22;19906;-79
2020/12/21 01:05:14;;;;;;;;;;;;;;;;;;6305128;22;19907;-79
2020/12/21 01:07:40;;;;;;;;;;;;;;;;;;6305585;22;19899;-79
2020/12/21 01:10:06;;;;;;;;;;;;;;;;;;6304872;22;19903;-79
2020/12/21 01:12:32;;;;;;;;;;;;;;;;;;6305311;22;19906;-79
2020/12/21 01:14:58;;;;;;;;;;;;;;;;;;6304956;22;19972;-79
2020/12/21 01:17:24;;;;;;;;;;;;;;;;;;6305079;22;19906;-79
2020/12/21 01:19:50;;;;;;;;;;;;;;;;;;6304922;22;20319;-79
2020/12/21 01:22:15;;;;;;;;;;;;;;;;;;6305371;22;19906;-79
2020/12/21 01:24:41;;;;;;;;;;;;;;;;;;6305507;22;20541;-79
2020/12/21 01:27:07;;;;;;;;;;;;;;;;;;6304691;22;19903;-79
2020/12/21 01:29:33;;;;;;;;;;;;;;;;;;6303599;22;20384;-79
2020/12/21 01:31:59;;;;;;;;;;;;;;;;;;6304726;22;20300;-79
2020/12/21 01:34:25;;;;;;;;;;;;;;;;;;6305029;22;19899;-79
2020/12/21 01:36:51;;;;;;;;;;;;;;;;;;6304941;22;20363;-79
2020/12/21 01:39:17;;;;;;;;;;;;;;;;;;6304731;22;20294;-79
2020/12/21 01:41:43;;;;;;;;;;;;;;;;;;6305090;22;20224;-79
2020/12/21 01:44:08;;;;;;;;;;;;;;;;;;6304891;22;19914;-79
2020/12/21 01:46:34;;;;;;;;;;;;;;;;;;6305109;22;20400;-79
2020/12/21 01:49:00;;;;;;;;;;;;;;;;;;6305213;22;19929;-79
2020/12/21 01:51:26;;;;;;;;;;;;;;;;;;6304764;22;20364;-79
2020/12/21 01:53:52;;;;;;;;;;;;;;;;;;6304739;22;19906;-79
2020/12/21 01:56:18;;;;;;;;;;;;;;;;;;6306428;22;20324;-79
2020/12/21 01:58:44;;;;;;;;;;;;;;;;;;6306785;22;19899;-79
2020/12/21 02:01:10;;;;;;;;;;;;;;;;;;6306825;22;20253;-79
2020/12/21 02:03:35;;;;;;;;;;;;;;;;;;6307508;22;20278;-79
2020/12/21 02:06:01;;;;;;;;;;;;;;;;;;6306807;22;19953;-79
2020/12/21 02:08:27;;;;;;;;;;;;;;;;;;6307038;22;20335;-79
2020/12/21 02:10:53;;;;;;;;;;;;;;;;;;6306627;22;19952;-79
2020/12/21 02:13:19;;;;;;;;;;;;;;;;;;6306760;22;20378;-79
2020/12/21 02:15:45;;;;;;;;;;;;;;;;;;6306676;22;19974;-79
2020/12/21 02:18:11;;;;;;;;;;;;;;;;;;6306659;22;20010;-79
2020/12/21 02:20:37;;;;;;;;;;;;;;;;;;6304963;22;19911;-79
2020/12/21 02:23:02;;;;;;;;;;;;;;;;;;6306741;22;19899;-79
2020/12/21 02:25:28;;;;;;;;;;;;;;;;;;6306498;22;19903;-79
2020/12/21 02:27:54;;;;;;;;;;;;;;;;;;6304629;22;19903;-79
2020/12/21 02:30:20;;;;;;;;;;;;;;;;;;6306302;22;20277;-79
2020/12/21 02:32:46;;;;;;;;;;;;;;;;;;6306517;22;19899;-79
2020/12/21 02:35:12;;;;;;;;;;;;;;;;;;6306339;22;19903;-79
2020/12/21 02:37:38;;;;;;;;;;;;;;;;;;6307094;22;19903;-79
2020/12/21 02:40:04;;;;;;;;;;;;;;;;;;6305574;22;19921;-79
2020/12/21 02:42:30;;;;;;;;;;;;;;;;;;6306448;22;19903;-79
2020/12/21 02:44:55;;;;;;;;;;;;;;;;;;6306302;22;20326;-79
2020/12/21 02:47:21;;;;;;;;;;;;;;;;;;6306362;22;20337;-79
2020/12/21 02:49:47;;;;;;;;;;;;;;;;;;6306450;22;19906;-79
2020/12/21 02:52:14;;;;;;;;;;;;;;;;;;6306579;22;20287;-79
2020/12/21 02:54:40;;;;;;;;;;;;;;;;;;6306685;22;19905;-79
2020/12/21 02:57:06;;;;;;;;;;;;;;;;;;6306731;22;19906;-79
2020/12/21 02:59:32;;;;;;;;;;;;;;;;;;6306442;22;20308;-79
2020/12/21 03:01:58;;;;;;;;;;;;;;;;;;6306374;22;19984;-79
2020/12/21 03:04:24;;;;;;;;;;;;;;;;;;6306456;22;19899;-79
2020/12/21 03:06:50;;;;;;;;;;;;;;;;;;6313066;22;19906;-78
2020/12/21 03:09:16;;;;;;;;;;;;;;;;;;6320046;22;20312;-79
2020/12/21 03:11:42;;;;;;;;;;;;;;;;;;6319782;22;19906;-80
2020/12/21 03:14:07;;;;;;;;;;;;;;;;;;6319777;22;19899;-80
2020/12/21 03:16:33;;;;;;;;;;;;;;;;;;6319796;22;19898;-79
2020/12/21 03:18:59;;;;;;;;;;;;;;;;;;6314532;22;19903;-79
2020/12/21 03:21:25;;;;;;;;;;;;;;;;;;6320620;22;19906;-79
2020/12/21 03:23:51;;;;;;;;;;;;;;;;;;6321471;22;19910;-79
2020/12/21 03:26:17;;;;;;;;;;;;;;;;;;6314282;22;19899;-80
2020/12/21 03:28:43;;;;;;;;;;;;;;;;;;6306058;22;19926;-80
2020/12/21 03:31:09;;;;;;;;;;;;;;;;;;6305884;22;19903;-80
2020/12/21 03:33:34;;;;;;;;;;;;;;;;;;6306016;22;19906;-80
2020/12/21 03:36:00;;;;;;;;;;;;;;;;;;6305469;22;19899;-80
2020/12/21 03:38:26;;;;;;;;;;;;;;;;;;6305712;22;19911;-79
2020/12/21 03:40:52;;;;;;;;;;;;;;;;;;6305566;22;19915;-80
2020/12/21 03:43:19;;;;;;;;;;;;;;;;;;6305674;22;19970;-79
2020/12/21 03:45:45;;;;;;;;;;;;;;;;;;6306338;22;20334;-79
2020/12/21 03:48:11;;;;;;;;;;;;;;;;;;6306178;22;19899;-80
2020/12/21 03:50:37;;;;;;;;;;;;;;;;;;6305574;22;20217;-79
2020/12/21 03:53:03;;;;;;;;;;;;;;;;;;6305536;22;19906;-79
2020/12/21 03:55:28;;;;;;;;;;;;;;;;;;6305524;22;20247;-79
2020/12/21 03:57:54;;;;;;;;;;;;;;;;;;6305566;22;19910;-79
2020/12/21 04:00:20;;;;;;;;;;;;;;;;;;6305288;22;20308;-79
2020/12/21 04:02:46;;;;;;;;;;;;;;;;;;6305654;22;19899;-79
2020/12/21 04:05:12;;;;;;;;;;;;;;;;;;6305463;22;19903;-79
2020/12/21 04:07:38;;;;;;;;;;;;;;;;;;6305540;22;19899;-79
2020/12/21 04:10:04;;;;;;;;;;;;;;;;;;6305371;22;19922;-79
2020/12/21 04:12:30;;;;;;;;;;;;;;;;;;6305429;22;19910;-79
2020/12/21 04:14:55;;;;;;;;;;;;;;;;;;6305185;22;19929;-79
2020/12/21 04:17:21;;;;;;;;;;;;;;;;;;6305080;22;20231;-79
2020/12/21 04:19:47;;;;;;;;;;;;;;;;;;6303592;22;19945;-80
2020/12/21 04:22:13;;;;;;;;;;;;;;;;;;6305194;22;19906;-79
2020/12/21 04:24:39;;;;;;;;;;;;;;;;;;6305320;22;20020;-79
2020/12/21 04:27:05;;;;;;;;;;;;;;;;;;6304852;22;19910;-80
2020/12/21 04:29:31;;;;;;;;;;;;;;;;;;6305545;22;19899;-80
2020/12/21 04:31:57;;;;;;;;;;;;;;;;;;6304934;22;19903;-79
2020/12/21 04:34:23;;;;;;;;;;;;;;;;;;6305313;22;19899;-79
2020/12/21 04:36:48;;;;;;;;;;;;;;;;;;6305143;22;19942;-80
2020/12/21 04:39:14;;;;;;;;;;;;;;;;;;6304864;22;19924;-80
2020/12/21 04:41:40;;;;;;;;;;;;;;;;;;6305276;22;19906;-79
2020/12/21 04:44:06;;;;;;;;;;;;;;;;;;6304987;22;19990;-77
2020/12/21 04:46:32;;;;;;;;;;;;;;;;;;6305256;22;19906;-77
2020/12/21 04:48:58;;;;;;;;;;;;;;;;;;6305108;22;19899;-78
2020/12/21 04:51:24;;;;;;;;;;;;;;;;;;6305093;22;20303;-78
2020/12/21 04:53:50;;;;;;;;;;;;;;;;;;6305163;22;19981;-78
2020/12/21 04:56:16;;;;;;;;;;;;;;;;;;6304800;22;19952;-78
2020/12/21 04:58:42;;;;;;;;;;;;;;;;;;6305195;22;19906;-78
2020/12/21 05:01:08;;;;;;;;;;;;;;;;;;6304882;22;19922;-78
2020/12/21 05:03:34;;;;;;;;;;;;;;;;;;6304983;22;19944;-78
2020/12/21 05:05:59;;;;;;;;;;;;;;;;;;6304986;22;20060;-78
2020/12/21 05:08:25;;;;;;;;;;;;;;;;;;6305138;22;19905;-78
2020/12/21 05:10:51;;;;;;;;;;;;;;;;;;6304710;22;19903;-78
2020/12/21 05:13:17;;;;;;;;;;;;;;;;;;6305107;22;19898;-78
2020/12/21 05:15:43;;;;;;;;;;;;;;;;;;6304965;22;20236;-78
2020/12/21 05:18:09;;;;;;;;;;;;;;;;;;6304980;22;19948;-78
2020/12/21 05:20:35;;;;;;;;;;;;;;;;;;6305017;22;20216;-78
2020/12/21 05:23:01;;;;;;;;;;;;;;;;;;6304946;22;19934;-78
2020/12/21 05:25:27;;;;;;;;;;;;;;;;;;6304863;22;20236;-78
2020/12/21 05:27:53;;;;;;;;;;;;;;;;;;6304503;22;19899;-78
2020/12/21 05:30:18;;;;;;;;;;;;;;;;;;6306642;22;19903;-78
2020/12/21 05:32:44;;;;;;;;;;;;;;;;;;6307017;22;19902;-78
2020/12/21 05:35:10;;;;;;;;;;;;;;;;;;6307121;22;20382;-78
2020/12/21 05:37:36;;;;;;;;;;;;;;;;;;6307103;22;20380;-78
2020/12/21 05:40:02;;;;;;;;;;;;;;;;;;6306395;22;19911;-78
2020/12/21 05:42:28;;;;;;;;;;;;;;;;;;6307128;22;19899;-78
2020/12/21 05:44:54;;;;;;;;;;;;;;;;;;6306813;22;19952;-78
2020/12/21 05:47:20;;;;;;;;;;;;;;;;;;6306881;22;19909;-79
2020/12/21 05:49:46;;;;;;;;;;;;;;;;;;6306892;22;19899;-78
2020/12/21 05:52:11;;;;;;;;;;;;;;;;;;6306210;22;19954;-78
2020/12/21 05:54:37;;;;;;;;;;;;;;;;;;6306627;22;19903;-79
2020/12/21 05:57:03;;;;;;;;;;;;;;;;;;6306471;22;19926;-79
2020/12/21 05:59:29;;;;;;;;;;;;;;;;;;6306508;22;19913;-79
2020/12/21 06:01:55;;;;;;;;;;;;;;;;;;6306276;22;19898;-79
2020/12/21 06:04:21;;;;;;;;;;;;;;;;;;6306302;22;19903;-79
2020/12/21 06:06:47;;;;;;;;;;;;;;;;;;6306630;22;19909;-79
2020/12/21 06:09:13;;;;;;;;;;;;;;;;;;6306631;22;19903;-79
2020/12/21 06:11:39;;;;;;;;;;;;;;;;;;6306471;22;19988;-79
2020/12/21 06:14:05;;;;;;;;;;;;;;;;;;6306329;22;19973;-79
2020/12/21 06:16:31;;;;;;;;;;;;;;;;;;6306601;22;19930;-78
2020/12/21 06:18:57;;;;;;;;;;;;;;;;;;6306063;22;20448;-79
2020/12/21 06:21:22;;;;;;;;;;;;;;;;;;6306364;22;19903;-79
2020/12/21 06:23:48;;;;;;;;;;;;;;;;;;6306563;22;20051;-79
2020/12/21 06:26:14;;;;;;;;;;;;;;;;;;6306340;22;19936;-79
2020/12/21 06:28:40;;;;;;;;;;;;;;;;;;6306494;22;19909;-79
2020/12/21 06:31:06;;;;;;;;;;;;;;;;;;6306010;22;19902;-79
2020/12/21 06:33:32;;;;;;;;;;;;;;;;;;6304777;22;20327;-79
2020/12/21 06:35:58;;;;;;;;;;;;;;;;;;6304593;22;19899;-79
2020/12/21 06:38:24;;;;;;;;;;;;;;;;;;6305906;22;20320;-79
2020/12/21 06:40:49;;;;;;;;;;;;;;;;;;6304037;22;19934;-79
2020/12/21 06:43:16;;;;;;;;;;;;;;;;;;6306239;22;19902;-79
2020/12/21 06:45:42;;;;;;;;;;;;;;;;;;6306066;22;19899;-79
2020/12/21 06:48:08;;;;;;;;;;;;;;;;;;6305983;22;19931;-79
2020/12/21 06:50:34;;;;;;;;;;;;;;;;;;6306081;22;19902;-79
2020/12/21 06:53:00;;;;;;;;;;;;;;;;;;6305890;22;19905;-79
2020/12/21 06:55:25;;;;;;;;;;;;;;;;;;6305736;22;19902;-79
2020/12/21 06:57:51;;;;;;;;;;;;;;;;;;6304289;22;19902;-79
2020/12/21 07:00:17;;;;;;;;;;;;;;;;;;6305838;22;19911;-79
2020/12/21 07:02:43;;;;;;;;;;;;;;;;;;6306139;22;19899;-79
2020/12/21 07:05:09;;;;;;;;;;;;;;;;;;6305756;22;20217;-79
2020/12/21 07:07:35;;;;;;;;;;;;;;;;;;6306233;22;19986;-79
2020/12/21 07:10:01;;;;;;;;;;;;;;;;;;6305915;22;20258;-79
2020/12/21 07:12:26;;;;;;;;;;;;;;;;;;6306128;22;19964;-79
2020/12/21 07:14:52;;;;;;;;;;;;;;;;;;6305793;22;20346;-79
2020/12/21 07:17:20;;;;;;;;;;;;;;;;;;6306079;22;19906;-79
2020/12/21 07:19:47;;;;;;;;;;;;;;;;;;6306202;22;19909;-79
2020/12/21 07:22:12;;;;;;;;;;;;;;;;;;6306029;22;19909;-79
2020/12/21 07:24:38;;;;;;;;;;;;;;;;;;6305509;22;19926;-79
2020/12/21 07:27:04;;;;;;;;;;;;;;;;;;6305539;22;19898;-79
2020/12/21 07:29:30;;;;;;;;;;;;;;;;;;6305748;22;19902;-79
2020/12/21 07:31:56;;;;;;;;;;;;;;;;;;6305258;22;19929;-79
2020/12/21 07:34:22;;;;;;;;;;;;;;;;;;6305492;22;19906;-79
2020/12/21 07:36:48;;;;;;;;;;;;;;;;;;6305872;22;19999;-80
2020/12/21 07:39:14;;;;;;;;;;;;;;;;;;6305317;22;19992;-80
2020/12/21 07:41:39;;;;;;;;;;;;;;;;;;6305656;22;19930;-80
2020/12/21 07:44:05;;;;;;;;;;;;;;;;;;6305440;22;19964;-80
2020/12/21 07:46:31;;;;;;;;;;;;;;;;;;6305401;22;19953;-80
2020/12/21 07:48:57;;;;;;;;;;;;;;;;;;6305665;22;19906;-80
2020/12/21 07:51:23;;;;;;;;;;;;;;;;;;6305540;22;19906;-80
2020/12/21 07:53:49;;;;;;;;;;;;;;;;;;6305833;22;19945;-80
2020/12/21 07:56:15;;;;;;;;;;;;;;;;;;6305435;22;19899;-80
2020/12/21 07:58:41;;;;;;;;;;;;;;;;;;6305460;22;19906;-79
2020/12/21 08:01:07;;;;;;;;;;;;;;;;;;6305127;22;19989;-79
2020/12/21 08:03:33;;;;;;;;;;;;;;;;;;6305446;22;19978;-79
2020/12/21 08:05:59;;;;;;;;;;;;;;;;;;6305101;22;20515;-79
2020/12/21 08:08:25;;;;;;;;;;;;;;;;;;6305304;22;19903;-79
2020/12/21 08:10:51;;;;;;;;;;;;;;;;;;6305213;22;20305;-79
2020/12/21 08:13:17;;;;;;;;;;;;;;;;;;6304796;22;19906;-79
2020/12/21 08:15:42;;;;;;;;;;;;;;;;;;6305175;22;20274;-79
2020/12/21 08:18:08;;;;;;;;;;;;;;;;;;6305090;22;20239;-79
2020/12/21 08:20:34;;;;;;;;;;;;;;;;;;6304867;22;19915;-79
2020/12/21 08:23:00;;;;;;;;;;;;;;;;;;6304407;22;19941;-78
2020/12/21 08:25:26;;;;;;;;;;;;;;;;;;6304560;22;19899;-79
2020/12/21 08:27:52;;;;;;;;;;;;;;;;;;6305200;22;19899;-78
2020/12/21 08:30:18;;;;;;;;;;;;;;;;;;6305094;22;19970;-78
2020/12/21 08:32:44;;;;;;;;;;;;;;;;;;6305165;22;19922;-78
2020/12/21 08:35:10;;;;;;;;;;;;;;;;;;6305471;22;19906;-78
2020/12/21 08:37:35;;;;;;;;;;;;;;;;;;6301054;22;19956;-79
2020/12/21 08:40:01;;;;;;;;;;;;;;;;;;6300592;22;19922;-79
2020/12/21 08:42:27;;;;;;;;;;;;;;;;;;6300541;22;19941;-79
2020/12/21 08:44:53;;;;;;;;;;;;;;;;;;6302765;22;19951;-78
2020/12/21 08:47:19;;;;;;;;;;;;;;;;;;6300624;22;19982;-79
2020/12/21 08:49:45;;;;;;;;;;;;;;;;;;6300876;22;19999;-79
2020/12/21 08:52:11;;;;;;;;;;;;;;;;;;6303603;22;19909;-81
2020/12/21 08:54:37;;;;;;;;;;;;;;;;;;6304730;22;19941;-81
2020/12/21 08:57:03;;;;;;;;;;;;;;;;;;6301269;22;20007;-80
2020/12/21 08:59:28;;;;;;;;;;;;;;;;;;6300634;22;20722;-81
2020/12/21 09:01:54;;;;;;;;;;;;;;;;;;6299665;22;19911;-80
2020/12/21 09:04:21;;;;;;;;;;;;;;;;;;6302219;22;20212;-80
2020/12/21 09:06:47;;;;;;;;;;;;;;;;;;6302634;22;20640;-80
2020/12/21 09:09:13;;;;;;;;;;;;;;;;;;6302659;22;19989;-82
2020/12/21 09:11:39;;;;;;;;;;;;;;;;;;6302925;22;19914;-78
2020/12/21 09:14:05;;;;;;;;;;;;;;;;;;6305086;22;19981;-81
2020/12/21 09:16:31;;;;;;;;;;;;;;;;;;6303425;22;20025;-81
2020/12/21 09:18:57;;;;;;;;;;;;;;;;;;6306688;22;19903;-81
2020/12/21 09:21:23;;;;;;;;;;;;;;;;;;6305976;22;20312;-81
2020/12/21 09:23:49;;;;;;;;;;;;;;;;;;6305021;22;19899;-81
2020/12/21 09:26:15;;;;;;;;;;;;;;;;;;6305133;22;20320;-81
2020/12/21 09:28:40;;;;;;;;;;;;;;;;;;6306473;22;19899;-81
2020/12/21 09:31:06;;;;;;;;;;;;;;;;;;6306180;22;19903;-81
2020/12/21 09:33:32;;;;;;;;;;;;;;;;;;6306417;22;19909;-81
2020/12/21 09:35:58;;;;;;;;;;;;;;;;;;6306730;22;19905;-81
2020/12/21 09:38:24;;;;;;;;;;;;;;;;;;6306213;22;19918;-81
2020/12/21 09:40:50;;;;;;;;;;;;;;;;;;6306657;22;20285;-81
2020/12/21 09:43:16;;;;;;;;;;;;;;;;;;6306104;22;19977;-81
2020/12/21 09:45:42;;;;;;;;;;;;;;;;;;6305913;22;20227;-84
2020/12/21 09:48:07;;;;;;;;;;;;;;;;;;6306075;22;19905;-81
2020/12/21 09:50:33;;;;;;;;;;;;;;;;;;6306267;22;19906;-81
2020/12/21 09:52:59;;;;;;;;;;;;;;;;;;6306343;22;19956;-79
2020/12/21 09:55:25;;;;;;;;;;;;;;;;;;6306094;22;19906;-79
2020/12/21 09:57:51;;;;;;;;;;;;;;;;;;6304023;22;19998;-81
2020/12/21 10:00:17;;;;;;;;;;;;;;;;;;6305675;22;19960;-81
2020/12/21 10:02:43;;;;;;;;;;;;;;;;;;6304889;22;19902;-79
2020/12/21 10:05:09;;;;;;;;;;;;;;;;;;6306289;22;20308;-80
2020/12/21 10:07:35;;;;;;;;;;;;;;;;;;6305882;22;19898;-80
2020/12/21 10:10:00;;;;;;;;;;;;;;;;;;6306971;22;20315;-79
2020/12/21 10:12:26;;;;;;;;;;;;;;;;;;6303796;22;19945;-79
2020/12/21 10:14:52;;;;;;;;;;;;;;;;;;6304350;22;20379;-78
2020/12/21 10:17:18;;;;;;;;;;;;;;;;;;6305495;22;19905;-79
2020/12/21 10:19:44;;;;;;;;;;;;;;;;;;6305989;22;20270;-79
2020/12/21 10:22:10;;;;;;;;;;;;;;;;;;6303750;22;19899;-79
2020/12/21 10:24:36;;;;;;;;;;;;;;;;;;6305660;22;19928;-79
2020/12/21 10:27:02;;;;;;;;;;;;;;;;;;6305661;22;19899;-80
2020/12/21 10:29:28;;;;;;;;;;;;;;;;;;6307064;22;19899;-79
2020/12/21 10:31:53;;;;;;;;;;;;;;;;;;6305499;22;20260;-80
2020/12/21 10:34:19;;;;;;;;;;;;;;;;;;6305080;22;19902;-79
2020/12/21 10:36:45;;;;;;;;;;;;;;;;;;6305895;22;19903;-80
2020/12/21 10:39:11;;;;;;;;;;;;;;;;;;6304238;22;19921;-79
2020/12/21 10:41:37;;;;;;;;;;;;;;;;;;6305803;22;19992;-79
2020/12/21 10:44:03;;;;;;;;;;;;;;;;;;6305669;22;19899;-79
2020/12/21 10:46:29;;;;;;;;;;;;;;;;;;6303892;22;19899;-79
2020/12/21 10:48:55;;;;;;;;;;;;;;;;;;6305951;22;19922;-79
2020/12/21 10:51:20;;;;;;;;;;;;;;;;;;6305564;22;19907;-79
2020/12/21 10:53:46;;;;;;;;;;;;;;;;;;6303809;22;19933;-78
2020/12/21 10:56:13;;;;;;;;;;;;;;;;;;6305749;22;19971;-79
2020/12/21 10:58:38;;;;;;;;;;;;;;;;;;6305265;22;19905;-79
2020/12/21 11:01:04;;;;;;;;;;;;;;;;;;6299089;22;19910;-80
2020/12/21 11:03:30;;;;;;;;;;;;;;;;;;6305808;22;20537;-80
2020/12/21 11:05:56;;;;;;;;;;;;;;;;;;6305772;22;19952;-80
2020/12/21 11:08:22;;;;;;;;;;;;;;;;;;6305361;22;19899;-81
2020/12/21 11:10:48;;;;;;;;;;;;;;;;;;6305868;22;19926;-83
2020/12/21 11:13:14;;;;;;;;;;;;;;;;;;6305230;22;20271;-82
2020/12/21 11:15:40;;;;;;;;;;;;;;;;;;6305533;22;20327;-85
2020/12/21 11:18:05;;;;;;;;;;;;;;;;;;6304371;22;20383;-86
2020/12/21 11:20:31;;;;;;;;;;;;;;;;;;6305657;22;19911;-81
2020/12/21 11:22:57;;;;;;;;;;;;;;;;;;6305123;22;20347;-89
2020/12/21 11:25:23;;;;;;;;;;;;;;;;;;6305431;22;19906;-82
2020/12/21 11:27:49;;;;;;;;;;;;;;;;;;6305130;22;19913;-84
2020/12/21 11:30:15;;;;;;;;;;;;;;;;;;6305658;22;20371;-86
2020/12/21 11:32:41;;;;;;;;;;;;;;;;;;6304627;22;19921;-85
2020/12/21 11:35:07;;;;;;;;;;;;;;;;;;6305253;22;19977;-84
2020/12/21 11:37:33;;;;;;;;;;;;;;;;;;6305263;22;19899;-82
2020/12/21 11:39:59;;;;;;;;;;;;;;;;;;6304906;22;19911;-69
2020/12/21 11:42:24;;;;;;;;;;;;;;;;;;6304748;22;19898;-82
2020/12/21 11:44:50;;;;;;;;;;;;;;;;;;6304899;22;19952;-86
2020/12/21 11:47:16;;;;;;;;;;;;;;;;;;6305224;22;20335;-89
2020/12/21 11:49:42;;;;;;;;;;;;;;;;;;6305481;22;19933;-87
2020/12/21 11:52:08;;;;;;;;;;;;;;;;;;6304112;22;19907;-83
2020/12/21 11:54:34;;;;;;;;;;;;;;;;;;6298848;22;20239;-81
2020/12/21 11:57:00;;;;;;;;;;;;;;;;;;6304415;22;19907;-81
2020/12/21 11:59:27;;;;;;;;;;;;;;;;;;6301577;22;19907;-81
2020/12/21 12:01:53;;;;;;;;;;;;;;;;;;6303261;22;19898;-82
2020/12/21 12:04:19;;;;;;;;;;;;;;;;;;6304282;22;19937;-80
2020/12/21 12:06:45;;;;;;;;;;;;;;;;;;6304368;22;20009;-80
2020/12/21 12:09:10;;;;;;;;;;;;;;;;;;6305293;22;19973;-81
2020/12/21 12:11:36;;;;;;;;;;;;;;;;;;6304772;22;20592;-80
2020/12/21 12:14:02;;;;;;;;;;;;;;;;;;6305253;22;19903;-82
2020/12/21 12:16:28;;;;;;;;;;;;;;;;;;6304110;22;20327;-81
2020/12/21 12:18:54;;;;;;;;;;;;;;;;;;6304678;22;19899;-81
2020/12/21 12:21:20;;;;;;;;;;;;;;;;;;6303832;22;20367;-80
2020/12/21 12:23:46;;;;;;;;;;;;;;;;;;6304509;22;19898;-81
2020/12/21 12:26:12;;;;;;;;;;;;;;;;;;6304445;22;19899;-81
2020/12/21 12:28:37;;;;;;;;;;;;;;;;;;6303905;22;19902;-80
2020/12/21 12:31:03;;;;;;;;;;;;;;;;;;6304054;22;19921;-81
2020/12/21 12:33:29;;;;;;;;;;;;;;;;;;6304827;22;19902;-75
2020/12/21 12:35:55;;;;;;;;;;;;;;;;;;6304643;22;19952;-80
2020/12/21 12:38:21;;;;;;;;;;;;;;;;;;6302162;22;19953;-82
2020/12/21 12:40:47;;;;;;;;;;;;;;;;;;6305074;22;19911;-82
2020/12/21 12:43:13;;;;;;;;;;;;;;;;;;6304785;22;20426;-80
2020/12/21 12:45:38;;;;;;;;;;;;;;;;;;6304753;22;19899;-80
2020/12/21 12:48:04;;;;;;;;;;;;;;;;;;6304394;22;20335;-81
2020/12/21 12:50:30;;;;;;;;;;;;;;;;;;6304693;22;19905;-79
2020/12/21 12:52:56;;;;;;;;;;;;;;;;;;6304621;22;19910;-82
2020/12/21 12:55:22;;;;;;;;;;;;;;;;;;6304832;22;20357;-82
2020/12/21 12:57:48;;;;;;;;;;;;;;;;;;6304882;22;19977;-82
2020/12/21 13:00:14;;;;;;;;;;;;;;;;;;6304532;22;19911;-83
2020/12/21 13:02:40;;;;;;;;;;;;;;;;;;6304825;22;20243;-82
2020/12/21 13:05:06;;;;;;;;;;;;;;;;;;6304620;22;19902;-80
2020/12/21 13:07:31;;;;;;;;;;;;;;;;;;6304795;22;20227;-81
2020/12/21 13:09:57;;;;;;;;;;;;;;;;;;6304657;22;20350;-82
2020/12/21 13:12:23;;;;;;;;;;;;;;;;;;6304146;22;19945;-85
2020/12/21 13:14:49;;;;;;;;;;;;;;;;;;6304704;22;19941;-89
2020/12/21 13:17:15;;;;;;;;;;;;;;;;;;6302259;22;19913;-83
2020/12/21 13:19:41;;;;;;;;;;;;;;;;;;6304279;22;19911;-83
2020/12/21 13:22:07;;;;;;;;;;;;;;;;;;6305096;22;20463;-84
2020/12/21 13:24:33;;;;;;;;;;;;;;;;;;6304032;22;19907;-83
2020/12/21 13:26:59;;;;;;;;;;;;;;;;;;6304248;22;19906;-83
2020/12/21 13:29:25;;;;;;;;;;;;;;;;;;6303320;22;19899;-84
2020/12/21 13:31:50;;;;;;;;;;;;;;;;;;6303575;22;20565;-83
2020/12/21 13:34:16;;;;;;;;;;;;;;;;;;6303056;22;19899;-82
2020/12/21 13:36:42;;;;;;;;;;;;;;;;;;6304117;22;19906;-83
2020/12/21 13:39:08;;;;;;;;;;;;;;;;;;6303718;22;19911;-85
2020/12/21 13:41:34;;;;;;;;;;;;;;;;;;6304120;22;19914;-85
2020/12/21 13:44:00;;;;;;;;;;;;;;;;;;6304868;22;19910;-86
2020/12/21 13:46:26;;;;;;;;;;;;;;;;;;6303991;22;19903;-85
2020/12/21 13:48:52;;;;;;;;;;;;;;;;;;6303657;22;19978;-80
2020/12/21 13:51:18;;;;;;;;;;;;;;;;;;6304546;22;19947;-80
2020/12/21 13:53:44;;;;;;;;;;;;;;;;;;6299361;22;20324;-81
2020/12/21 13:56:09;;;;;;;;;;;;;;;;;;6305040;22;19993;-82
2020/12/21 13:58:35;;;;;;;;;;;;;;;;;;6304890;22;20290;-80
2020/12/21 14:01:01;;;;;;;;;;;;;;;;;;6307211;22;19907;-81
2020/12/21 14:03:27;;;;;;;;;;;;;;;;;;6307561;22;20236;-82
2020/12/21 14:05:53;;;;;;;;;;;;;;;;;;6306991;22;20311;-80
2020/12/21 14:08:19;;;;;;;;;;;;;;;;;;6307351;22;20319;-81
2020/12/21 14:10:45;;;;;;;;;;;;;;;;;;6307613;22;19981;-80
2020/12/21 14:13:11;;;;;;;;;;;;;;;;;;6326999;22;19934;-80
2020/12/21 14:15:37;;;;;;;;;;;;;;;;;;6329713;22;19898;-80
2020/12/21 14:18:03;;;;;;;;;;;;;;;;;;6328588;22;19899;-80
2020/12/21 14:20:29;;;;;;;;;;;;;;;;;;6329599;22;20422;-81
2020/12/21 14:22:55;;;;;;;;;;;;;;;;;;6331040;22;19929;-83
2020/12/21 14:25:24;;;;;;;;;;;;;;;;;;6332635;22;19893;-80
2020/12/21 14:27:50;;;;;;;;;;;;;;;;;;6325261;22;19934;-81
2020/12/21 14:30:15;;;;;;;;;;;;;;;;;;6305840;22;19899;-81
2020/12/21 14:32:41;;;;;;;;;;;;;;;;;;6303725;22;19953;-82
2020/12/21 14:35:07;;;;;;;;;;;;;;;;;;6310584;22;19907;-82
2020/12/21 14:37:33;;;;;;;;;;;;;;;;;;6305334;22;19949;-84
2020/12/21 14:39:59;;;;;;;;;;;;;;;;;;6305138;22;19937;-83
2020/12/21 14:42:25;;;;;;;;;;;;;;;;;;6304801;22;19977;-76
2020/12/21 14:44:51;;;;;;;;;;;;;;;;;;6304553;22;19964;-81
2020/12/21 14:47:17;;;;;;;;;;;;;;;;;;6303806;22;20235;-82
2020/12/21 14:49:43;;;;;;;;;;;;;;;;;;6305831;22;20263;-82
2020/12/21 14:52:09;;;;;;;;;;;;;;;;;;6304859;22;19898;-83
2020/12/21 14:54:35;;;;;;;;;;;;;;;;;;6305868;22;20426;-83
2020/12/21 14:57:01;;;;;;;;;;;;;;;;;;6305625;22;19933;-83
2020/12/21 14:59:27;;;;;;;;;;;;;;;;;;6306089;22;19911;-83
2020/12/21 15:01:56;;;;;;;;;;;;;;;;;;6305121;22;19903;-83
2020/12/21 15:04:22;;;;;;;;;;;;;;;;;;6304860;22;19902;-83
2020/12/21 15:06:48;;;;;;;;;;;;;;;;;;6303522;22;19945;-82
2020/12/21 15:09:14;;;;;;;;;;;;;;;;;;6305470;22;19909;-83
2020/12/21 15:11:40;;;;;;;;;;;;;;;;;;6303861;22;19960;-83
2020/12/21 15:14:06;;;;;;;;;;;;;;;;;;6305837;22;19909;-83
2020/12/21 15:16:32;;;;;;;;;;;;;;;;;;6305200;22;19926;-83
2020/12/21 15:18:58;;;;;;;;;;;;;;;;;;6305037;22;19933;-83
2020/12/21 15:21:24;;;;;;;;;;;;;;;;;;6304388;22;19915;-83
2020/12/21 15:23:49;;;;;;;;;;;;;;;;;;6303124;22;19926;-83
2020/12/21 15:26:15;;;;;;;;;;;;;;;;;;6305300;22;19906;-82
2020/12/21 15:28:41;;;;;;;;;;;;;;;;;;6302221;22;19899;-82
2020/12/21 15:31:07;;;;;;;;;;;;;;;;;;6303053;22;19907;-82
2020/12/21 15:33:33;;;;;;;;;;;;;;;;;;6306124;22;19910;-82
2020/12/21 15:35:59;;;;;;;;;;;;;;;;;;6304507;22;19899;-82
2020/12/21 15:38:25;;;;;;;;;;;;;;;;;;6303455;22;19911;-82
2020/12/21 15:40:51;;;;;;;;;;;;;;;;;;6305562;22;19907;-82
2020/12/21 15:43:17;;;;;;;;;;;;;;;;;;6305077;22;19903;-82
2020/12/21 15:45:43;;;;;;;;;;;;;;;;;;6305238;22;19926;-82
2020/12/21 15:48:09;;;;;;;;;;;;;;;;;;6304992;22;19978;-82
2020/12/21 15:50:35;;;;;;;;;;;;;;;;;;6303823;22;19902;-83
2020/12/21 15:53:01;;;;;;;;;;;;;;;;;;6304962;22;19899;-82
2020/12/21 15:55:27;;;;;;;;;;;;;;;;;;6305366;22;19903;-83
2020/12/21 15:57:53;;;;;;;;;;;;;;;;;;6305397;22;19906;-82
2020/12/21 16:00:18;;;;;;;;;;;;;;;;;;6303073;22;20017;-82
2020/12/21 16:02:44;;;;;;;;;;;;;;;;;;6304726;22;19906;-83
2020/12/21 16:05:11;;;;;;;;;;;;;;;;;;6305082;22;20007;-83
2020/12/21 16:07:37;;;;;;;;;;;;;;;;;;6304436;22;19903;-79
2020/12/21 16:10:03;;;;;;;;;;;;;;;;;;6303817;22;20388;-83
2020/12/21 16:12:30;;;;;;;;;;;;;;;;;;6302476;22;19910;-83
2020/12/21 16:14:56;;;;;;;;;;;;;;;;;;6303974;22;19903;-83
2020/12/21 16:17:22;;;;;;;;;;;;;;;;;;6304195;22;19903;-83
2020/12/21 16:19:47;;;;;;;;;;;;;;;;;;6302649;22;19907;-83
2020/12/21 16:22:13;;;;;;;;;;;;;;;;;;6304594;22;19899;-83
2020/12/21 16:24:41;;;;;;;;;;;;;;;;;;6304025;22;20111;-82
2020/12/21 16:27:07;;;;;;;;;;;;;;;;;;6304419;22;20484;-83
2020/12/21 16:29:33;;;;;;;;;;;;;;;;;;6303383;22;19899;-82
2020/12/21 16:31:59;;;;;;;;;;;;;;;;;;6303928;22;19910;-80
2020/12/21 16:34:25;;;;;;;;;;;;;;;;;;6304441;22;19934;-88
2020/12/21 16:36:50;;;;;;;;;;;;;;;;;;6305171;22;19903;-83